createdAt,value
2022-11-30T00:01:21.252Z,12.69
2022-11-30T00:03:54.640Z,12.72
2022-11-30T00:06:24.206Z,12.73
2022-11-30T00:08:55.825Z,12.74
2022-11-30T00:11:26.491Z,12.77
2022-11-30T00:13:54.901Z,12.75
2022-11-30T00:16:25.582Z,12.68
2022-11-30T00:18:56.943Z,12.67
2022-11-30T00:21:29.190Z,12.57
2022-11-30T00:23:58.652Z,12.59
2022-11-30T00:26:27.859Z,12.54
2022-11-30T00:28:56.945Z,12.57
2022-11-30T00:31:27.016Z,12.46
2022-11-30T00:33:55.851Z,12.59
2022-11-30T00:36:25.618Z,12.50
2022-11-30T00:38:54.270Z,12.53
2022-11-30T00:41:24.058Z,12.46
2022-11-30T00:43:54.194Z,12.49
2022-11-30T00:46:22.771Z,12.42
2022-11-30T00:48:55.559Z,12.53
2022-11-30T00:51:24.661Z,12.55
2022-11-30T00:53:53.740Z,12.63
2022-11-30T00:56:24.955Z,12.68
2022-11-30T00:58:54.418Z,12.66
2022-11-30T01:01:24.775Z,12.67
2022-11-30T01:03:55.031Z,12.65
2022-11-30T01:06:25.212Z,12.66
2022-11-30T01:08:54.742Z,12.59
2022-11-30T01:11:26.826Z,12.62
2022-11-30T01:13:57.293Z,12.52
2022-11-30T01:16:31.588Z,12.54
2022-11-30T01:19:02.385Z,12.45
2022-11-30T01:21:31.410Z,12.62
2022-11-30T01:24:00.412Z,12.49
2022-11-30T01:26:29.866Z,12.67
2022-11-30T01:29:00.550Z,12.70
2022-11-30T01:31:30.524Z,12.68
2022-11-30T01:34:05.046Z,12.62
2022-11-30T01:36:34.346Z,12.64
2022-11-30T01:39:03.912Z,12.53
2022-11-30T01:41:34.402Z,12.60
2022-11-30T01:44:52.532Z,12.58
2022-11-30T01:47:27.579Z,12.57
2022-11-30T01:50:04.326Z,12.64
2022-11-30T01:52:38.396Z,12.57
2022-11-30T01:55:19.650Z,12.58
2022-11-30T01:57:54.884Z,12.61
2022-11-30T02:00:25.231Z,12.62
2022-11-30T02:03:02.679Z,12.60
2022-11-30T02:05:37.217Z,12.62
2022-11-30T02:08:10.925Z,12.57
2022-11-30T02:10:44.014Z,12.42
2022-11-30T02:13:48.154Z,12.39
2022-11-30T02:16:28.628Z,12.32
2022-11-30T02:19:15.461Z,12.40
2022-11-30T02:21:57.258Z,12.45
2022-11-30T02:24:49.071Z,12.40
2022-11-30T02:27:38.199Z,12.41
2022-11-30T02:30:13.593Z,12.48
2022-11-30T02:32:49.597Z,12.48
2022-11-30T02:35:24.923Z,12.42
2022-11-30T02:37:56.275Z,12.37
2022-11-30T02:40:26.589Z,12.23
2022-11-30T02:42:59.781Z,12.28
2022-11-30T02:45:39.618Z,12.34
2022-11-30T02:48:11.866Z,12.31
2022-11-30T02:50:47.246Z,12.33
2022-11-30T02:53:17.592Z,12.35
2022-11-30T02:55:46.285Z,12.38
2022-11-30T02:58:18.047Z,12.38
2022-11-30T03:00:51.386Z,12.39
2022-11-30T03:03:20.926Z,12.38
2022-11-30T03:05:49.548Z,12.38
2022-11-30T03:08:18.751Z,12.34
2022-11-30T03:10:52.062Z,12.33
2022-11-30T03:13:20.454Z,12.25
2022-11-30T03:15:51.977Z,12.29
2022-11-30T03:18:23.225Z,12.25
2022-11-30T03:20:52.132Z,12.22
2022-11-30T03:23:21.639Z,12.19
2022-11-30T03:25:50.906Z,12.10
2022-11-30T03:28:19.454Z,12.16
2022-11-30T03:30:52.969Z,12.17
2022-11-30T03:33:22.199Z,12.23
2022-11-30T03:36:03.703Z,12.10
2022-11-30T03:38:33.176Z,12.15
2022-11-30T03:41:03.268Z,12.19
2022-11-30T03:43:31.639Z,12.13
2022-11-30T03:46:03.670Z,12.09
2022-11-30T03:48:32.620Z,12.12
2022-11-30T03:51:01.644Z,12.11
2022-11-30T03:53:30.271Z,12.20
2022-11-30T03:56:02.162Z,12.19
2022-11-30T03:58:32.382Z,12.23
2022-11-30T04:01:17.999Z,12.20
2022-11-30T04:03:46.563Z,12.28
2022-11-30T04:06:16.565Z,12.28
2022-11-30T04:08:45.962Z,12.23
2022-11-30T04:11:16.252Z,12.20
2022-11-30T04:13:47.254Z,12.30
2022-11-30T04:16:18.129Z,12.27
2022-11-30T04:18:47.813Z,12.32
2022-11-30T04:21:18.480Z,12.29
2022-11-30T04:23:48.210Z,12.20
2022-11-30T04:26:19.250Z,12.29
2022-11-30T04:28:50.861Z,12.34
2022-11-30T04:31:21.617Z,12.29
2022-11-30T04:33:53.709Z,12.31
2022-11-30T04:36:25.148Z,12.30
2022-11-30T04:38:53.424Z,12.23
2022-11-30T04:41:22.895Z,12.22
2022-11-30T04:43:52.965Z,12.21
2022-11-30T04:46:25.069Z,12.16
2022-11-30T04:48:54.635Z,12.16
2022-11-30T04:51:23.004Z,12.22
2022-11-30T04:53:52.912Z,12.26
2022-11-30T04:56:21.595Z,12.29
2022-11-30T04:58:50.422Z,12.19
2022-11-30T05:01:18.964Z,12.16
2022-11-30T05:03:49.830Z,12.19
2022-11-30T05:06:21.863Z,12.19
2022-11-30T05:08:51.068Z,12.15
2022-11-30T05:11:22.026Z,12.23
2022-11-30T05:13:52.219Z,12.17
2022-11-30T05:16:24.451Z,12.05
2022-11-30T05:18:55.526Z,12.18
2022-11-30T05:21:25.053Z,12.19
2022-11-30T05:23:54.554Z,12.12
2022-11-30T05:26:23.419Z,12.07
2022-11-30T05:28:52.420Z,12.14
2022-11-30T05:31:21.718Z,12.17
2022-11-30T05:33:54.036Z,12.13
2022-11-30T05:36:23.765Z,12.14
2022-11-30T05:38:55.758Z,12.11
2022-11-30T05:41:32.710Z,12.10
2022-11-30T05:44:06.574Z,12.01
2022-11-30T05:46:40.690Z,12.01
2022-11-30T05:49:11.801Z,11.99
2022-11-30T05:51:44.135Z,11.87
2022-11-30T05:54:13.509Z,11.94
2022-11-30T05:56:42.328Z,11.89
2022-11-30T05:59:12.506Z,11.75
2022-11-30T06:01:42.977Z,11.79
2022-11-30T06:04:15.930Z,11.75
2022-11-30T06:06:44.786Z,11.73
2022-11-30T06:09:16.548Z,11.73
2022-11-30T06:11:46.718Z,11.68
2022-11-30T06:14:16.126Z,11.60
2022-11-30T06:16:45.591Z,11.60
2022-11-30T06:19:15.954Z,11.57
2022-11-30T06:21:49.211Z,11.56
2022-11-30T06:24:23.749Z,11.49
2022-11-30T06:26:53.100Z,11.50
2022-11-30T06:29:26.313Z,11.42
2022-11-30T06:31:56.147Z,11.45
2022-11-30T06:34:39.417Z,11.38
2022-11-30T06:37:09.618Z,11.40
2022-11-30T06:42:31.589Z,11.17
2022-11-30T06:45:01.982Z,11.17
2022-11-30T06:47:32.252Z,11.15
2022-11-30T06:50:06.911Z,11.10
2022-11-30T06:52:35.912Z,11.05
2022-11-30T06:55:08.486Z,11.02
2022-11-30T06:57:37.319Z,10.98
2022-11-30T07:00:09.500Z,10.87
2022-11-30T07:02:39.713Z,10.79
2022-11-30T07:05:12.726Z,10.72
2022-11-30T07:07:42.986Z,10.68
2022-11-30T07:10:19.883Z,10.64
2022-11-30T07:12:48.986Z,10.54
2022-11-30T07:15:17.978Z,10.44
2022-11-30T07:17:47.197Z,10.39
2022-11-30T07:20:23.408Z,10.33
2022-11-30T07:23:20.488Z,10.30
2022-11-30T07:26:07.609Z,10.26
2022-11-30T07:28:37.522Z,10.23
2022-11-30T07:31:20.838Z,10.25
2022-11-30T07:33:50.831Z,10.10
2022-11-30T07:36:25.521Z,10.27
2022-11-30T07:38:54.886Z,10.26
2022-11-30T07:41:24.534Z,10.32
2022-11-30T07:43:54.462Z,10.30
2022-11-30T07:46:24.149Z,10.34
2022-11-30T07:48:53.737Z,10.45
2022-11-30T07:51:24.447Z,10.32
2022-11-30T07:53:53.557Z,10.43
2022-11-30T07:56:22.857Z,10.49
2022-11-30T07:58:56.537Z,10.43
2022-11-30T08:01:29.181Z,10.53
2022-11-30T08:03:58.853Z,10.69
2022-11-30T08:06:32.297Z,10.83
2022-11-30T08:09:04.290Z,10.80
2022-11-30T08:11:37.125Z,10.80
2022-11-30T08:14:07.295Z,10.82
2022-11-30T08:16:39.753Z,10.90
2022-11-30T08:19:11.299Z,10.92
2022-11-30T08:21:46.888Z,10.97
2022-11-30T08:24:15.609Z,11.14
2022-11-30T08:26:44.308Z,11.21
2022-11-30T08:29:12.790Z,11.19
2022-11-30T08:31:43.133Z,11.16
2022-11-30T08:34:14.597Z,10.99
2022-11-30T08:36:47.216Z,11.23
2022-11-30T08:39:20.146Z,11.30
2022-11-30T08:41:49.143Z,11.35
2022-11-30T08:44:18.621Z,11.45
2022-11-30T08:46:52.133Z,11.54
2022-11-30T08:49:24.697Z,11.53
2022-11-30T08:54:50.389Z,11.57
2022-11-30T08:57:22.525Z,11.67
2022-11-30T08:59:51.751Z,11.66
2022-11-30T09:02:20.879Z,11.84
2022-11-30T09:04:51.900Z,11.77
2022-11-30T09:07:22.243Z,11.86
2022-11-30T09:09:51.508Z,12.12
2022-11-30T09:12:20.678Z,12.16
2022-11-30T09:14:57.348Z,12.35
2022-11-30T09:17:28.607Z,12.28
2022-11-30T09:19:57.382Z,12.42
2022-11-30T09:22:31.305Z,12.36
2022-11-30T09:24:59.995Z,12.50
2022-11-30T09:27:32.781Z,12.62
2022-11-30T09:30:05.559Z,12.73
2022-11-30T09:32:34.259Z,12.75
2022-11-30T09:35:03.612Z,12.68
2022-11-30T09:37:39.092Z,12.65
2022-11-30T09:40:11.404Z,12.66
2022-11-30T09:42:54.805Z,12.78
2022-11-30T09:45:30.665Z,12.76
2022-11-30T09:48:31.143Z,12.91
2022-11-30T09:51:27.423Z,12.76
2022-11-30T09:54:06.913Z,13.01
2022-11-30T09:56:41.161Z,13.01
2022-11-30T09:59:20.610Z,13.12
2022-11-30T10:01:56.939Z,13.15
2022-11-30T10:04:31.997Z,13.18
2022-11-30T10:07:17.510Z,13.13
2022-11-30T10:10:31.555Z,12.71
2022-11-30T10:13:02.561Z,12.92
2022-11-30T10:15:54.626Z,13.03
2022-11-30T10:18:46.461Z,12.91
2022-11-30T10:21:33.810Z,13.07
2022-11-30T10:24:25.843Z,13.26
2022-11-30T10:27:02.669Z,13.16
2022-11-30T10:29:39.912Z,13.32
2022-11-30T10:32:23.514Z,13.22
2022-11-30T10:35:04.651Z,13.24
2022-11-30T10:37:42.881Z,13.27
2022-11-30T10:40:18.901Z,13.22
2022-11-30T10:42:55.465Z,13.44
2022-11-30T10:45:29.108Z,13.66
2022-11-30T10:48:05.640Z,13.64
2022-11-30T10:50:35.969Z,13.63
2022-11-30T10:53:09.134Z,13.34
2022-11-30T10:55:42.702Z,13.85
2022-11-30T10:58:23.853Z,13.27
2022-11-30T11:01:06.903Z,13.41
2022-11-30T11:03:36.989Z,13.49
2022-11-30T11:06:21.305Z,13.51
2022-11-30T11:08:56.128Z,13.60
2022-11-30T11:11:34.760Z,13.61
2022-11-30T11:14:20.842Z,13.47
2022-11-30T11:16:58.142Z,13.70
2022-11-30T11:19:38.295Z,13.43
2022-11-30T11:22:19.798Z,13.91
2022-11-30T11:24:58.289Z,13.96
2022-11-30T11:27:31.104Z,14.10
2022-11-30T11:30:13.850Z,14.05
2022-11-30T11:32:58.274Z,13.97
2022-11-30T11:35:46.886Z,14.05
2022-11-30T11:38:28.576Z,14.23
2022-11-30T11:41:04.274Z,14.39
2022-11-30T11:43:36.425Z,14.42
2022-11-30T11:46:15.072Z,13.88
2022-11-30T11:48:58.876Z,14.29
2022-11-30T11:51:34.916Z,14.54
2022-11-30T11:54:17.626Z,14.76
2022-11-30T11:56:47.222Z,14.79
2022-11-30T11:59:25.789Z,14.66
2022-11-30T12:02:06.656Z,14.87
2022-11-30T12:04:46.167Z,14.84
2022-11-30T12:07:27.176Z,14.62
2022-11-30T12:10:51.345Z,14.75
2022-11-30T12:13:25.004Z,14.77
2022-11-30T12:16:10.537Z,14.50
2022-11-30T12:18:51.615Z,14.28
2022-11-30T12:21:36.591Z,14.12
2022-11-30T12:24:40.144Z,14.40
2022-11-30T12:27:22.460Z,14.39
2022-11-30T12:30:10.194Z,14.53
2022-11-30T12:33:05.935Z,14.43
2022-11-30T12:35:48.531Z,13.99
2022-11-30T12:38:32.332Z,14.37
2022-11-30T12:41:28.227Z,14.35
2022-11-30T12:44:12.111Z,14.14
2022-11-30T12:46:55.625Z,14.20
2022-11-30T12:49:42.059Z,14.00
2022-11-30T12:52:33.711Z,14.07
2022-11-30T12:55:17.257Z,13.74
2022-11-30T12:57:56.720Z,14.05
2022-11-30T13:00:31.079Z,13.92
2022-11-30T13:03:36.227Z,13.84
2022-11-30T13:06:16.197Z,13.89
2022-11-30T13:09:03.037Z,13.90
2022-11-30T13:11:39.857Z,13.60
2022-11-30T13:14:18.091Z,13.64
2022-11-30T13:16:49.755Z,13.54
2022-11-30T13:19:49.295Z,13.82
2022-11-30T13:22:28.517Z,13.45
2022-11-30T13:25:19.545Z,13.87
2022-11-30T13:27:59.091Z,13.58
2022-11-30T13:30:44.275Z,13.45
2022-11-30T13:33:49.418Z,13.45
2022-11-30T13:36:44.102Z,13.41
2022-11-30T13:39:25.490Z,13.38
2022-11-30T13:42:39.805Z,13.52
2022-11-30T13:45:34.025Z,13.25
2022-11-30T13:48:21.964Z,13.02
2022-11-30T13:50:52.395Z,13.27
2022-11-30T13:53:26.897Z,12.86
2022-11-30T13:56:09.591Z,13.03
2022-11-30T13:59:36.294Z,13.13
2022-11-30T14:03:01.795Z,12.71
2022-11-30T14:05:44.209Z,12.76
2022-11-30T14:08:34.145Z,12.64
2022-11-30T14:11:38.172Z,12.62
2022-11-30T14:14:49.073Z,12.64
2022-11-30T14:17:27.980Z,12.80
2022-11-30T14:20:10.460Z,12.27
2022-11-30T14:22:45.122Z,12.51
2022-11-30T14:25:16.666Z,12.30
2022-11-30T14:27:46.459Z,12.37
2022-11-30T14:30:23.605Z,12.33
2022-11-30T14:33:05.908Z,11.99
2022-11-30T14:35:40.281Z,12.18
2022-11-30T14:38:28.017Z,12.21
2022-11-30T14:40:59.905Z,11.92
2022-11-30T14:43:31.087Z,11.83
2022-11-30T14:46:09.114Z,11.89
2022-11-30T14:48:39.890Z,11.92
2022-11-30T14:51:14.234Z,11.86
2022-11-30T14:53:54.253Z,12.00
2022-11-30T14:56:31.190Z,11.86
2022-11-30T14:59:28.221Z,12.01
2022-11-30T15:02:12.035Z,12.06
2022-11-30T15:04:43.000Z,12.00
2022-11-30T15:07:17.479Z,12.11
2022-11-30T15:10:01.757Z,11.95
2022-11-30T15:12:36.009Z,11.87
2022-11-30T15:15:15.578Z,11.77
2022-11-30T15:18:09.325Z,11.76
2022-11-30T15:20:46.482Z,11.74
2022-11-30T15:23:25.538Z,11.61
2022-11-30T15:26:04.553Z,11.46
2022-11-30T15:28:42.908Z,11.47
2022-11-30T15:31:21.847Z,11.46
2022-11-30T15:33:56.333Z,11.44
2022-11-30T15:36:33.476Z,11.34
2022-11-30T15:39:10.593Z,11.29
2022-11-30T15:44:44.292Z,10.98
2022-11-30T15:47:33.953Z,10.98
2022-11-30T15:50:25.582Z,10.87
2022-11-30T15:52:55.732Z,10.83
2022-11-30T15:55:46.449Z,10.74
2022-11-30T15:58:33.407Z,10.68
2022-11-30T16:01:19.008Z,10.64
2022-11-30T16:04:07.294Z,10.48
2022-11-30T16:06:50.465Z,10.43
2022-11-30T16:09:24.373Z,10.28
2022-11-30T16:11:58.370Z,10.31
2022-11-30T16:14:32.254Z,10.28
2022-11-30T16:17:08.784Z,10.16
2022-11-30T16:19:40.919Z,10.17
2022-11-30T16:22:14.717Z,10.11
2022-11-30T16:24:46.699Z,10.11
2022-11-30T16:27:19.519Z,9.98
2022-11-30T16:29:52.596Z,10.00
2022-11-30T16:32:22.310Z,10.01
2022-11-30T16:34:51.560Z,10.01
2022-11-30T16:37:22.713Z,10.01
2022-11-30T16:39:52.532Z,10.04
2022-11-30T16:42:21.597Z,9.95
2022-11-30T16:44:51.661Z,10.04
2022-11-30T16:47:35.899Z,10.18
2022-11-30T16:50:23.506Z,10.21
2022-11-30T17:04:48.373Z,10.36
2022-11-30T17:07:19.596Z,10.38
2022-11-30T17:10:03.689Z,10.46
2022-11-30T17:15:44.217Z,10.46
2022-11-30T17:21:22.705Z,10.43
2022-11-30T17:29:51.422Z,10.28
2022-11-30T17:32:34.231Z,10.24
2022-11-30T17:44:29.298Z,10.04
2022-11-30T17:50:42.657Z,9.98
2022-11-30T17:53:19.345Z,9.93
2022-11-30T17:55:49.528Z,9.93
2022-11-30T17:58:19.530Z,9.89
2022-11-30T18:00:50.302Z,9.94
2022-11-30T18:03:21.935Z,10.04
2022-11-30T18:05:54.496Z,10.01
2022-11-30T18:08:25.026Z,10.11
2022-11-30T18:10:56.061Z,10.07
2022-11-30T18:13:26.592Z,10.21
2022-11-30T18:15:58.766Z,10.21
2022-11-30T18:18:28.873Z,10.16
2022-11-30T18:21:14.565Z,10.21
2022-11-30T18:23:44.160Z,10.31
2022-11-30T18:26:17.559Z,10.30
2022-11-30T18:28:47.821Z,10.34
2022-11-30T18:31:17.865Z,10.40
2022-11-30T18:33:48.862Z,9.94
2022-11-30T18:36:25.015Z,10.30
2022-11-30T18:39:11.846Z,10.23
2022-11-30T18:41:43.153Z,10.28
2022-11-30T18:44:13.240Z,10.22
2022-11-30T18:46:46.397Z,10.44
2022-11-30T18:49:19.473Z,10.47
2022-11-30T18:51:52.182Z,10.16
2022-11-30T18:54:26.489Z,10.32
2022-11-30T18:56:58.401Z,10.33
2022-11-30T18:59:30.186Z,10.39
2022-11-30T19:02:01.162Z,10.27
2022-11-30T19:04:31.722Z,10.32
2022-11-30T19:07:03.812Z,10.25
2022-11-30T19:09:35.782Z,10.19
2022-11-30T19:12:05.884Z,10.15
2022-11-30T19:14:38.390Z,10.07
2022-11-30T19:17:23.313Z,9.97
2022-11-30T19:19:56.572Z,9.82
2022-11-30T19:22:46.431Z,9.87
2022-11-30T19:25:18.870Z,9.77
2022-11-30T19:27:51.458Z,9.77
2022-11-30T19:30:28.667Z,9.74
2022-11-30T19:32:59.456Z,9.67
2022-11-30T19:35:30.145Z,9.62
2022-11-30T19:38:05.561Z,9.56
2022-11-30T19:40:52.469Z,9.54
2022-11-30T19:43:22.369Z,9.70
2022-11-30T19:45:53.025Z,9.61
2022-11-30T19:51:42.506Z,9.74
2022-11-30T19:54:16.504Z,9.75
2022-11-30T19:56:50.153Z,9.72
2022-11-30T19:59:33.256Z,9.70
2022-11-30T20:02:12.081Z,9.70
2022-11-30T20:04:50.925Z,9.61
2022-11-30T20:07:28.842Z,9.52
2022-11-30T20:10:23.278Z,9.73
2022-11-30T20:13:10.099Z,9.66
2022-11-30T20:15:48.946Z,9.61
2022-11-30T20:18:27.626Z,9.66
2022-11-30T20:21:00.087Z,9.59
2022-11-30T20:23:44.875Z,9.62
2022-11-30T20:26:23.912Z,9.56
2022-11-30T20:28:55.840Z,9.52
2022-11-30T20:31:26.798Z,9.35
2022-11-30T20:33:56.285Z,9.47
2022-11-30T20:36:25.222Z,9.49
2022-11-30T20:38:56.259Z,9.40
2022-11-30T20:41:26.583Z,9.52
2022-11-30T20:44:02.409Z,9.49
2022-11-30T20:46:36.649Z,9.48
2022-11-30T20:49:14.737Z,9.56
2022-11-30T20:51:43.691Z,9.45
2022-11-30T20:54:14.535Z,9.59
2022-11-30T20:56:50.931Z,9.59
2022-11-30T20:59:26.998Z,9.59
2022-11-30T21:01:58.865Z,9.69
2022-11-30T21:04:28.783Z,9.75
2022-11-30T21:07:03.201Z,9.67
2022-11-30T21:09:33.309Z,9.78
2022-11-30T21:12:04.189Z,9.67
2022-11-30T21:14:34.449Z,9.70
2022-11-30T21:17:09.613Z,9.77
2022-11-30T21:19:44.610Z,9.77
2022-11-30T21:22:14.090Z,9.77
2022-11-30T21:24:44.315Z,9.74
2022-11-30T21:27:14.870Z,9.74
2022-11-30T21:29:47.197Z,9.64
2022-11-30T21:32:17.022Z,9.70
2022-11-30T21:34:46.246Z,9.76
2022-11-30T21:37:16.455Z,9.62
2022-11-30T21:39:46.752Z,9.66
2022-11-30T21:42:16.173Z,9.67
2022-11-30T21:44:46.618Z,9.50
2022-11-30T21:47:17.820Z,9.63
2022-11-30T21:49:46.193Z,9.59
2022-11-30T21:52:15.744Z,9.59
2022-11-30T21:54:48.714Z,9.50
2022-11-30T21:57:17.922Z,9.54
2022-11-30T21:59:50.841Z,9.49
2022-11-30T22:02:22.361Z,9.58
2022-11-30T22:04:51.394Z,9.61
2022-11-30T22:07:31.710Z,9.64
2022-11-30T22:10:02.941Z,9.57
2022-11-30T22:12:32.807Z,9.64
2022-11-30T22:15:05.209Z,9.61
2022-11-30T22:17:35.878Z,9.80
2022-11-30T22:20:08.308Z,9.77
2022-11-30T22:22:42.334Z,9.78
2022-11-30T22:25:13.369Z,9.73
2022-11-30T22:27:45.647Z,9.73
2022-11-30T22:30:15.588Z,9.85
2022-11-30T22:32:44.784Z,9.84
2022-11-30T22:35:13.841Z,9.88
2022-11-30T22:37:43.177Z,9.96
2022-11-30T22:40:17.003Z,9.97
2022-11-30T22:42:46.510Z,9.85
2022-11-30T22:45:17.615Z,9.76
2022-11-30T22:47:46.900Z,9.88
2022-11-30T22:50:16.265Z,9.84
2022-11-30T22:53:02.561Z,9.73
2022-11-30T22:55:38.055Z,9.75
2022-11-30T22:58:08.677Z,9.76
2022-11-30T23:00:37.893Z,9.73
2022-11-30T23:03:08.413Z,9.78
2022-11-30T23:05:37.989Z,9.75
2022-11-30T23:08:08.075Z,9.81
2022-11-30T23:10:40.576Z,9.82
2022-11-30T23:13:15.096Z,9.77
2022-11-30T23:15:44.545Z,9.88
2022-11-30T23:18:14.111Z,9.94
2022-11-30T23:20:43.531Z,9.96
2022-11-30T23:23:12.504Z,9.90
2022-11-30T23:25:42.720Z,9.94
2022-11-30T23:28:17.083Z,10.00
2022-11-30T23:30:45.578Z,9.77
2022-11-30T23:33:15.147Z,10.01
2022-11-30T23:35:45.770Z,9.99
2022-11-30T23:38:15.284Z,10.10
2022-11-30T23:40:45.749Z,10.12
2022-11-30T23:43:15.295Z,10.14
2022-11-30T23:45:45.204Z,10.01
2022-11-30T23:48:14.509Z,10.17
2022-11-30T23:50:52.858Z,10.13
2022-11-30T23:53:22.261Z,10.16
2022-11-30T23:55:54.250Z,10.11
2022-11-30T23:58:26.667Z,10.11
